Time;durP1;ratioP1;P1;durP2;ratioP2;P2;SDS_P1;SDS_P2;PMS_P1;PMS_P2;Temp;Humidity;BMP_temperature;BMP_pressure;BME280_temperature;BME280_humidity;BME280_pressure;Samples;Min_cycle;Max_cycle;Signal;HPM_P1;HPM_P2
2023/09/26 00:00:22;;;;;;;17.10;5.30;;;;;;;15.32;62.57;102051.80;108628;1253;110940;-64
2023/09/26 00:03:12;;;;;;;10.50;5.30;;;;;;;15.31;62.43;102049.20;107427;1254;111455;-63
2023/09/26 00:05:42;;;;;;;13.50;5.80;;;;;;;15.29;62.77;102050.77;108595;1253;108082;-62
2023/09/26 00:08:10;;;;;;;13.00;5.00;;;;;;;15.27;62.69;102052.98;108619;1251;95869;-62
2023/09/26 00:10:38;;;;;;;16.40;5.30;;;;;;;15.24;63.06;102049.82;108635;1251;96178;-62
2023/09/26 00:13:06;;;;;;;21.60;5.90;;;;;;;15.21;64.01;102051.58;108590;1251;110762;-62
2023/09/26 00:15:35;;;;;;;17.50;5.30;;;;;;;15.17;63.58;102049.70;108641;1251;108736;-62
2023/09/26 00:18:03;;;;;;;11.30;4.80;;;;;;;15.15;63.61;102049.69;108617;1253;106287;-62
2023/09/26 00:20:34;;;;;;;18.60;6.30;;;;;;;15.14;63.67;102049.45;108327;1254;96010;-62
2023/09/26 00:23:04;;;;;;;10.50;5.20;;;;;;;15.13;63.69;102051.11;108651;1252;95846;-62
2023/09/26 00:25:32;;;;;;;16.30;5.00;;;;;;;15.12;63.95;102055.75;108632;1251;111145;-63
2023/09/26 00:28:00;;;;;;;12.90;4.90;;;;;;;15.10;64.24;102052.86;108001;1255;108522;-63
2023/09/26 00:30:29;;;;;;;15.70;4.70;;;;;;;15.08;63.99;102051.77;108637;1251;108245;-62
2023/09/26 00:32:57;;;;;;;17.00;5.10;;;;;;;15.06;63.99;102050.16;107919;1255;97826;-65
2023/09/26 00:35:26;;;;;;;13.20;5.30;;;;;;;15.03;63.87;102047.82;107866;1253;98409;-63
2023/09/26 00:37:54;;;;;;;15.20;5.30;;;;;;;15.01;63.77;102049.42;107279;1254;111778;-62
2023/09/26 00:40:23;;;;;;;18.10;5.70;;;;;;;14.98;64.08;102051.17;107302;1254;109979;-62
2023/09/26 00:42:52;;;;;;;22.80;5.70;;;;;;;14.93;63.69;102048.70;107292;1252;107694;-62
2023/09/26 00:45:20;;;;;;;22.00;5.80;;;;;;;14.89;64.04;102049.98;107285;1254;97985;-64
2023/09/26 00:47:49;;;;;;;13.20;5.50;;;;;;;14.83;64.04;102056.11;107291;1254;97736;-64
2023/09/26 00:50:22;;;;;;;18.60;5.80;;;;;;;14.78;64.08;102060.09;107448;1254;111566;-63
2023/09/26 00:52:53;;;;;;;17.70;5.50;;;;;;;14.75;64.39;102056.23;107291;1251;109977;-63
2023/09/26 00:55:24;;;;;;;14.10;5.40;;;;;;;14.71;64.26;102061.41;107254;1256;107404;-62
2023/09/26 00:57:54;;;;;;;29.20;5.10;;;;;;;14.69;64.40;102063.96;107674;1254;97841;-64
2023/09/26 01:00:24;;;;;;;17.70;5.20;;;;;;;14.62;64.62;102058.21;107255;1251;98488;-62
2023/09/26 01:02:52;;;;;;;14.60;5.50;;;;;;;14.58;64.63;102053.98;108505;1253;112063;-62
2023/09/26 01:05:22;;;;;;;13.20;5.00;;;;;;;14.58;64.71;102057.86;107713;1254;110296;-64
2023/09/26 01:07:53;;;;;;;20.70;5.80;;;;;;;14.56;64.84;102057.65;107293;1256;106789;-64
2023/09/26 01:10:22;;;;;;;15.30;5.60;;;;;;;14.54;64.90;102056.69;107145;1253;97884;-65
2023/09/26 01:12:50;;;;;;;15.10;5.80;;;;;;;14.52;65.40;102061.41;107310;1254;98412;-64
2023/09/26 01:15:31;;;;;;;17.20;5.70;;;;;;;14.47;65.65;102060.51;107270;1254;112679;-63
2023/09/26 01:18:00;;;;;;;16.30;5.80;;;;;;;14.44;65.56;102064.95;107279;1256;108736;-63
2023/09/26 01:20:28;;;;;;;10.60;5.70;;;;;;;14.41;65.30;102062.10;107226;1254;108136;-64
2023/09/26 01:22:57;;;;;;;22.70;6.00;;;;;;;14.38;65.69;102059.67;107246;1251;97869;-63
2023/09/26 01:25:25;;;;;;;13.30;5.20;;;;;;;14.30;65.99;102059.83;107301;1256;98008;-63
2023/09/26 01:27:53;;;;;;;21.00;5.60;;;;;;;14.24;65.98;102058.70;107259;1254;112014;-64
2023/09/26 01:30:22;;;;;;;26.50;5.80;;;;;;;14.18;66.19;102062.21;107281;1254;110083;-63
2023/09/26 01:32:51;;;;;;;20.40;7.30;;;;;;;14.17;66.13;102060.17;107314;1255;107996;-63
2023/09/26 01:35:19;;;;;;;14.90;5.30;;;;;;;14.14;66.28;102061.17;108609;1253;95647;-63
2023/09/26 01:37:50;;;;;;;13.70;5.20;;;;;;;14.12;66.36;102061.30;108621;1253;96156;-63
2023/09/26 01:40:18;;;;;;;15.50;6.00;;;;;;;14.12;66.36;102058.75;108650;1252;110660;-64
2023/09/26 01:42:47;;;;;;;14.50;5.60;;;;;;;14.13;66.68;102061.45;108011;1253;109391;-64
2023/09/26 01:45:16;;;;;;;19.00;5.60;;;;;;;14.11;66.90;102062.30;107611;1253;108610;-63
2023/09/26 01:47:50;;;;;;;22.60;5.70;;;;;;;14.09;66.80;102062.42;107264;1254;97844;-64
2023/09/26 01:50:20;;;;;;;21.00;5.70;;;;;;;14.07;67.04;102064.59;107313;1253;97918;-63
2023/09/26 01:52:49;;;;;;;11.20;5.90;;;;;;;14.05;67.14;102068.70;107366;1254;110885;-62
2023/09/26 01:55:20;;;;;;;15.10;5.60;;;;;;;14.02;67.06;102067.13;107306;1254;109931;-64
2023/09/26 01:57:49;;;;;;;17.30;6.50;;;;;;;14.00;66.99;102067.67;108609;1251;107649;-61
2023/09/26 02:00:19;;;;;;;15.20;6.20;;;;;;;13.99;67.40;102067.41;108601;1251;95946;-63
2023/09/26 02:02:50;;;;;;;25.40;6.70;;;;;;;13.97;67.80;102067.40;107881;1252;96928;-63
2023/09/26 02:05:21;;;;;;;15.00;6.10;;;;;;;13.93;67.78;102070.39;107544;1253;112152;-62
2023/09/26 02:07:50;;;;;;;15.10;6.20;;;;;;;13.92;67.71;102073.06;107312;1253;109186;-62
2023/09/26 02:10:19;;;;;;;24.00;6.10;;;;;;;13.91;67.55;102069.86;107673;1253;107527;-61
2023/09/26 02:12:49;;;;;;;15.90;6.00;;;;;;;13.91;67.71;102072.59;108603;1251;95747;-62
2023/09/26 02:15:18;;;;;;;14.30;6.50;;;;;;;13.92;67.85;102075.59;107417;1254;96962;-62
2023/09/26 02:17:47;;;;;;;22.90;6.40;;;;;;;13.93;67.82;102078.40;107279;1253;111418;-63
2023/09/26 02:20:17;;;;;;;15.10;6.10;;;;;;;13.91;67.72;102077.39;107319;1254;109625;-63
2023/09/26 02:22:51;;;;;;;20.10;6.80;;;;;;;13.91;67.63;102083.41;107313;1254;108302;-63
2023/09/26 02:25:20;;;;;;;11.60;6.50;;;;;;;13.89;67.73;102083.23;107301;1251;97857;-63
2023/09/26 02:27:50;;;;;;;18.20;6.50;;;;;;;13.84;67.77;102085.93;107325;1254;98398;-63
2023/09/26 02:30:28;;;;;;;17.40;6.60;;;;;;;13.79;67.68;102093.56;108593;1252;112476;-63
2023/09/26 02:32:57;;;;;;;13.00;6.40;;;;;;;13.75;67.97;102092.61;108621;1253;110159;-62
2023/09/26 02:35:26;;;;;;;16.20;7.20;;;;;;;13.70;68.74;102093.75;107732;1253;107192;-64
2023/09/26 02:37:54;;;;;;;11.50;6.10;;;;;;;13.66;68.59;102091.52;107184;1251;97852;-65
2023/09/26 02:40:22;;;;;;;15.30;6.90;;;;;;;13.61;68.53;102091.73;107273;1254;98489;-63
2023/09/26 02:42:51;;;;;;;17.20;6.40;;;;;;;13.60;68.66;102092.38;107293;1254;112222;-62
2023/09/26 02:45:19;;;;;;;16.20;6.20;;;;;;;13.60;68.88;102092.92;107276;1254;109639;-63
2023/09/26 02:47:48;;;;;;;30.00;7.50;;;;;;;13.59;68.76;102093.19;107262;1253;107829;-62
2023/09/26 02:50:17;;;;;;;16.90;6.90;;;;;;;13.55;68.64;102092.40;108605;1251;95704;-62
2023/09/26 02:52:46;;;;;;;17.40;5.70;;;;;;;13.53;69.63;102095.88;107347;1255;97885;-62
2023/09/26 02:55:14;;;;;;;23.90;6.30;;;;;;;13.47;69.56;102092.52;107250;1254;112297;-62
2023/09/26 02:57:43;;;;;;;13.30;7.00;;;;;;;13.45;69.58;102091.37;108614;1255;109168;-62
2023/09/26 03:00:16;;;;;;;14.10;6.50;;;;;;;13.46;69.53;102090.45;108503;1253;107624;-62
2023/09/26 03:02:47;;;;;;;11.90;7.30;;;;;;;13.46;69.72;102093.13;108617;1251;95594;-63
2023/09/26 03:05:17;;;;;;;17.30;6.30;;;;;;;13.47;69.78;102091.61;108662;1252;96124;-63
2023/09/26 03:07:49;;;;;;;12.90;7.10;;;;;;;13.48;69.76;102091.02;108605;1251;111206;-63
2023/09/26 03:10:17;;;;;;;19.00;6.80;;;;;;;13.49;70.18;102092.07;107492;1253;109057;-63
2023/09/26 03:12:46;;;;;;;14.90;7.40;;;;;;;13.47;69.96;102091.10;107291;1251;109169;-63
2023/09/26 03:15:15;;;;;;;14.80;7.50;;;;;;;13.45;70.11;102094.07;108607;1251;95636;-63
2023/09/26 03:17:45;;;;;;;22.20;7.50;;;;;;;13.43;70.13;102094.96;107425;1254;97915;-64
2023/09/26 03:20:16;;;;;;;24.30;7.40;;;;;;;13.38;70.63;102099.16;107267;1253;112460;-64
2023/09/26 03:22:44;;;;;;;19.10;6.30;;;;;;;13.32;70.76;102101.06;107339;1254;109319;-63
2023/09/26 03:25:13;;;;;;;18.70;7.50;;;;;;;13.28;70.63;102104.94;107238;1251;107315;-63
2023/09/26 03:27:44;;;;;;;25.50;8.10;;;;;;;13.27;70.51;102099.80;108630;1251;95590;-63
2023/09/26 03:30:15;;;;;;;22.30;7.30;;;;;;;13.26;70.40;102106.59;108631;1253;96345;-63
2023/09/26 03:32:43;;;;;;;21.90;7.50;;;;;;;13.24;70.14;102110.18;108585;1253;111704;-63
2023/09/26 03:35:12;;;;;;;26.30;8.00;;;;;;;13.21;70.33;102111.48;108587;1253;108045;-64
2023/09/26 03:37:40;;;;;;;21.00;8.30;;;;;;;13.20;70.70;102113.38;107389;1253;109630;-64
2023/09/26 03:40:09;;;;;;;23.40;7.90;;;;;;;13.18;70.77;102111.56;107214;1252;97868;-64
2023/09/26 03:42:38;;;;;;;13.20;7.10;;;;;;;13.16;70.63;102111.65;108674;1253;95894;-64
2023/09/26 03:45:08;;;;;;;24.00;8.10;;;;;;;13.15;70.60;102110.65;108655;1252;111824;-63
2023/09/26 03:47:36;;;;;;;19.40;7.90;;;;;;;13.15;70.65;102109.57;108672;1252;110068;-64
2023/09/26 03:50:05;;;;;;;29.00;7.90;;;;;;;13.15;70.61;102117.13;108597;1252;108931;-64
2023/09/26 03:52:34;;;;;;;28.10;8.80;;;;;;;13.15;70.34;102118.78;108630;1252;95566;-64
2023/09/26 03:55:03;;;;;;;24.60;9.10;;;;;;;13.16;70.56;102116.73;108650;1252;96033;-64
2023/09/26 03:57:34;;;;;;;23.90;10.50;;;;;;;13.18;70.61;102118.93;108656;1253;110654;-64
2023/09/26 04:00:13;;;;;;;30.60;9.40;;;;;;;13.20;70.89;102117.50;108649;1251;108678;-64
2023/09/26 04:02:41;;;;;;;23.10;8.60;;;;;;;13.22;70.99;102118.39;108563;1252;107801;-63
2023/09/26 04:05:09;;;;;;;18.80;9.00;;;;;;;13.21;71.44;102120.70;108634;1252;95698;-63
2023/09/26 04:07:38;;;;;;;18.10;9.20;;;;;;;13.19;71.58;102123.38;108693;1252;96093;-64
2023/09/26 04:10:07;;;;;;;19.50;8.70;;;;;;;13.19;71.56;102125.49;108687;1252;111872;-63
2023/09/26 04:12:35;;;;;;;26.60;9.00;;;;;;;13.18;72.47;102129.02;108654;1253;109609;-63
2023/09/26 04:15:04;;;;;;;23.10;8.80;;;;;;;13.14;72.51;102132.33;108627;1253;108602;-64
2023/09/26 04:17:32;;;;;;;22.90;9.90;;;;;;;13.14;72.39;102129.05;108632;1254;95908;-63
2023/09/26 04:20:00;;;;;;;25.00;10.10;;;;;;;13.14;72.35;102132.88;108594;1252;96833;-63
2023/09/26 04:22:29;;;;;;;22.90;13.00;;;;;;;13.15;72.27;102133.54;107324;1254;111933;-63
2023/09/26 04:24:57;;;;;;;28.20;10.20;;;;;;;13.17;72.59;102132.14;107685;1253;108975;-64
2023/09/26 04:27:26;;;;;;;22.70;11.10;;;;;;;13.17;72.74;102135.91;107281;1253;108578;-64
2023/09/26 04:29:54;;;;;;;17.30;9.90;;;;;;;13.19;72.66;102139.67;107241;1253;97909;-64
2023/09/26 04:32:23;;;;;;;25.20;9.50;;;;;;;13.22;72.91;102144.68;107307;1253;98370;-63
2023/09/26 04:34:52;;;;;;;23.90;11.20;;;;;;;13.22;73.03;102141.43;107232;1253;111117;-63
2023/09/26 04:37:21;;;;;;;25.40;11.60;;;;;;;13.25;73.10;102144.13;107349;1255;109750;-63
2023/09/26 04:39:49;;;;;;;26.50;11.40;;;;;;;13.28;72.98;102140.96;107247;1254;107613;-65
2023/09/26 04:42:18;;;;;;;34.30;12.20;;;;;;;13.34;73.03;102141.45;107255;1254;97831;-65
2023/09/26 04:44:46;;;;;;;22.70;10.60;;;;;;;13.40;72.97;102140.45;107344;1256;97819;-64
2023/09/26 04:47:15;;;;;;;34.80;12.10;;;;;;;13.44;72.93;102143.42;107312;1254;111177;-63
2023/09/26 04:49:44;;;;;;;20.10;11.30;;;;;;;13.46;73.21;102147.18;107255;1253;110415;-65
2023/09/26 04:52:12;;;;;;;30.00;12.20;;;;;;;13.49;73.27;102152.20;107228;1253;108453;-64
2023/09/26 04:54:41;;;;;;;37.80;12.70;;;;;;;13.53;73.20;102149.69;108140;1251;96199;-64
2023/09/26 04:57:09;;;;;;;23.10;11.80;;;;;;;13.58;73.32;102145.89;107299;1255;97838;-63
2023/09/26 04:59:37;;;;;;;32.30;14.00;;;;;;;13.63;73.16;102147.46;108610;1251;112071;-64
2023/09/26 05:02:05;;;;;;;30.80;14.00;;;;;;;13.69;73.32;102148.30;108627;1251;108977;-63
2023/09/26 05:04:34;;;;;;;34.30;16.00;;;;;;;13.78;74.33;102152.42;108641;1251;107558;-64
2023/09/26 05:07:02;;;;;;;38.60;16.30;;;;;;;13.88;74.52;102156.33;108677;1251;95746;-63
2023/09/26 05:09:30;;;;;;;31.80;15.60;;;;;;;13.98;75.61;102156.05;108286;1251;95837;-63
2023/09/26 05:11:59;;;;;;;38.40;17.10;;;;;;;14.07;75.12;102154.27;107297;1254;111834;-65
2023/09/26 05:14:27;;;;;;;40.50;16.10;;;;;;;14.16;75.51;102155.14;108622;1252;108248;-63
2023/09/26 05:16:55;;;;;;;32.60;16.10;;;;;;;14.25;75.42;102160.56;108578;1252;107678;-64
2023/09/26 05:19:23;;;;;;;38.70;16.40;;;;;;;14.33;75.38;102166.57;108604;1252;95867;-64
2023/09/26 05:21:51;;;;;;;30.20;15.40;;;;;;;14.42;75.27;102169.30;108595;1253;95597;-63
2023/09/26 05:24:22;;;;;;;48.80;16.60;;;;;;;14.48;76.21;102171.30;107981;1253;110053;-64
2023/09/26 05:26:50;;;;;;;30.30;17.00;;;;;;;14.51;78.14;102175.57;107298;1253;109863;-64
2023/09/26 05:29:19;;;;;;;32.60;15.20;;;;;;;14.49;77.69;102174.80;107958;1251;105759;-63
2023/09/26 05:31:48;;;;;;;34.20;17.40;;;;;;;14.50;78.50;102176.71;108658;1251;95982;-64
2023/09/26 05:34:16;;;;;;;32.30;17.10;;;;;;;14.51;78.59;102173.95;108658;1253;96155;-63
2023/09/26 05:36:44;;;;;;;37.00;16.90;;;;;;;14.52;79.55;102180.32;108635;1252;111027;-63
2023/09/26 05:39:12;;;;;;;37.80;18.40;;;;;;;14.55;79.84;102179.39;107677;1254;108590;-64
2023/09/26 05:41:40;;;;;;;25.40;16.60;;;;;;;14.57;79.62;102182.28;107259;1254;108585;-63
2023/09/26 05:44:12;;;;;;;47.40;17.60;;;;;;;14.57;79.75;102179.74;107256;1256;97726;-65
2023/09/26 05:46:40;;;;;;;28.10;16.50;;;;;;;14.61;79.80;102180.87;108660;1253;96106;-63
2023/09/26 05:49:08;;;;;;;35.30;16.70;;;;;;;14.63;80.21;102179.44;107943;1254;110971;-64
2023/09/26 05:51:37;;;;;;;32.90;16.50;;;;;;;14.65;80.08;102181.23;107217;1256;109763;-65
2023/09/26 05:54:05;;;;;;;34.40;15.80;;;;;;;14.72;80.11;102183.09;107239;1252;106882;-63
2023/09/26 05:56:52;;;;;;;30.10;17.40;;;;;;;14.79;80.10;102186.65;107228;1254;97845;-63
2023/09/26 05:59:21;;;;;;;42.00;17.40;;;;;;;14.85;79.57;102187.76;107240;1253;97927;-65
2023/09/26 06:01:49;;;;;;;36.70;16.20;;;;;;;14.89;79.81;102191.23;107203;1254;111319;-63
2023/09/26 06:04:17;;;;;;;39.10;17.00;;;;;;;14.91;79.73;102188.86;107998;1254;109670;-62
2023/09/26 06:06:46;;;;;;;28.10;16.50;;;;;;;14.97;79.28;102192.52;108622;1253;108077;-63
2023/09/26 06:09:14;;;;;;;32.00;17.10;;;;;;;15.05;79.73;102192.93;108619;1251;96117;-63
2023/09/26 06:11:43;;;;;;;29.90;15.60;;;;;;;15.12;79.20;102199.80;108423;1253;96068;-63
2023/09/26 06:14:11;;;;;;;34.10;16.80;;;;;;;15.17;78.95;102198.41;108664;1253;111617;-64
2023/09/26 06:16:39;;;;;;;43.20;17.50;;;;;;;15.22;78.69;102200.02;108661;1251;109146;-64
2023/09/26 06:19:08;;;;;;;28.30;15.10;;;;;;;15.28;78.55;102195.13;108629;1254;108325;-63
2023/09/26 06:21:36;;;;;;;35.10;15.50;;;;;;;15.36;77.92;102196.94;108633;1252;95848;-63
2023/09/26 06:24:06;;;;;;;28.20;16.20;;;;;;;15.45;77.70;102196.77;107535;1253;98382;-64
2023/09/26 06:26:34;;;;;;;22.60;15.40;;;;;;;15.53;77.33;102194.25;108681;1251;111748;-64
2023/09/26 06:29:02;;;;;;;31.90;15.50;;;;;;;15.60;77.04;102197.94;108622;1254;109532;-64
2023/09/26 06:31:31;;;;;;;29.40;16.50;;;;;;;15.67;76.65;102194.46;108394;1251;107250;-64
2023/09/26 06:34:01;;;;;;;31.90;14.40;;;;;;;15.71;75.52;102193.59;107286;1251;97847;-63
2023/09/26 06:36:31;;;;;;;37.60;20.80;;;;;;;15.78;74.33;102196.27;107311;1253;97730;-63
2023/09/26 06:39:00;;;;;;;48.70;16.30;;;;;;;15.84;73.63;102199.16;107239;1254;110751;-64
2023/09/26 06:41:28;;;;;;;29.60;14.90;;;;;;;15.94;73.11;102198.65;107237;1255;110626;-65
2023/09/26 06:43:56;;;;;;;32.10;13.90;;;;;;;16.07;72.83;102196.59;107260;1253;108093;-65
2023/09/26 06:46:25;;;;;;;30.30;14.40;;;;;;;16.19;71.41;102200.08;107266;1254;97860;-62
2023/09/26 06:48:54;;;;;;;32.40;13.10;;;;;;;16.27;70.27;102200.20;107649;1251;98363;-64
2023/09/26 06:51:23;;;;;;;37.20;18.20;;;;;;;16.37;69.97;102203.18;107214;1254;111749;-65
2023/09/26 06:53:51;;;;;;;31.40;14.40;;;;;;;16.46;69.30;102205.97;107377;1254;109779;-64
2023/09/26 06:56:20;;;;;;;33.40;14.30;;;;;;;16.51;67.97;102204.79;107264;1254;109606;-63
2023/09/26 06:58:48;;;;;;;35.80;15.70;;;;;;;16.59;67.77;102200.65;107235;1252;97863;-65
2023/09/26 07:01:18;;;;;;;34.30;14.30;;;;;;;16.68;67.63;102197.85;107339;1255;97954;-66
2023/09/26 07:03:47;;;;;;;28.00;14.90;;;;;;;16.75;67.09;102197.92;108634;1253;111914;-66
2023/09/26 07:06:16;;;;;;;32.10;14.70;;;;;;;16.83;67.15;102201.84;108700;1252;109067;-65
2023/09/26 07:08:44;;;;;;;40.50;17.30;;;;;;;16.95;67.05;102203.55;108657;1253;108259;-63
2023/09/26 07:11:13;;;;;;;47.70;16.30;;;;;;;17.04;66.71;102202.29;108643;1252;96024;-63
2023/09/26 07:13:41;;;;;;;42.90;15.80;;;;;;;17.14;66.48;102207.33;108683;1253;96130;-71
2023/09/26 07:16:12;;;;;;;34.30;15.80;;;;;;;17.25;65.93;102204.22;108678;1254;110585;-66
2023/09/26 07:18:41;;;;;;;33.10;15.90;;;;;;;17.34;65.04;102209.10;107299;1254;110000;-63
2023/09/26 07:21:09;;;;;;;36.80;15.10;;;;;;;17.41;64.70;102209.55;107276;1254;107771;-63
2023/09/26 07:23:38;;;;;;;35.60;14.90;;;;;;;17.51;64.64;102203.48;107250;1255;97940;-63
2023/09/26 07:26:12;;;;;;;38.20;17.40;;;;;;;17.62;63.90;102201.25;107315;1254;97854;-65
2023/09/26 07:28:44;;;;;;;38.00;16.10;;;;;;;17.73;63.59;102202.73;107998;1254;112454;-65
2023/09/26 07:31:15;;;;;;;48.80;15.40;;;;;;;17.85;63.55;102201.77;108635;1251;112044;-67
2023/09/26 07:33:44;;;;;;;36.80;14.50;;;;;;;17.96;62.79;102203.45;107983;1254;108143;-69
2023/09/26 07:36:13;;;;;;;37.40;13.70;;;;;;;18.08;62.51;102200.48;107496;1252;97823;-68
2023/09/26 07:38:41;;;;;;;37.90;14.70;;;;;;;18.21;62.40;102201.52;107579;1254;98399;-68
2023/09/26 07:41:10;;;;;;;37.10;13.80;;;;;;;18.35;62.04;102205.80;107563;1255;111825;-67
2023/09/26 07:43:39;;;;;;;26.50;12.90;;;;;;;18.48;61.72;102207.93;107593;1254;109721;-68
2023/09/26 07:46:09;;;;;;;35.20;14.20;;;;;;;18.63;61.03;102204.80;107494;1257;108357;-67
2023/09/26 07:48:39;;;;;;;33.40;14.10;;;;;;;18.77;60.46;102207.44;107567;1256;97824;-69
2023/09/26 07:51:09;;;;;;;34.60;14.70;;;;;;;18.88;60.16;102203.25;107545;1254;97851;-66
2023/09/26 07:53:40;;;;;;;45.50;14.10;;;;;;;19.01;60.04;102201.92;107571;1254;111566;-66
2023/09/26 07:56:10;;;;;;;40.20;13.80;;;;;;;19.16;59.92;102202.94;107568;1254;109975;-63
2023/09/26 07:58:38;;;;;;;36.40;13.80;;;;;;;19.31;58.88;102201.92;107607;1254;107796;-63
2023/09/26 08:01:08;;;;;;;26.30;13.10;;;;;;;19.46;57.74;102199.50;107596;1253;98008;-64
2023/09/26 08:03:40;;;;;;;42.20;13.00;;;;;;;19.61;57.56;102196.29;107564;1254;97988;-62
2023/09/26 08:06:09;;;;;;;35.10;12.10;;;;;;;19.77;57.25;102192.42;107561;1254;113167;-63
2023/09/26 08:08:38;;;;;;;36.40;12.90;;;;;;;19.95;56.66;102190.25;107625;1254;108743;-61
2023/09/26 08:11:11;;;;;;;30.80;12.90;;;;;;;20.11;55.86;102192.20;107594;1254;108223;-62
2023/09/26 08:13:39;;;;;;;36.80;13.00;;;;;;;20.28;55.39;102190.18;107614;1254;97857;-62
2023/09/26 08:16:08;;;;;;;36.00;13.30;;;;;;;20.47;55.00;102189.27;107620;1256;97688;-61
2023/09/26 08:18:37;;;;;;;30.90;12.80;;;;;;;20.65;54.88;102188.89;107597;1254;111679;-61
2023/09/26 08:21:06;;;;;;;22.60;11.40;;;;;;;20.86;54.27;102181.21;107614;1253;109688;-61
2023/09/26 08:23:35;;;;;;;38.90;12.90;;;;;;;21.05;53.32;102176.94;107621;1254;108260;-62
2023/09/26 08:26:10;;;;;;;36.00;11.50;;;;;;;21.26;53.60;102178.63;107621;1254;97847;-61
2023/09/26 08:28:39;;;;;;;36.60;11.90;;;;;;;21.50;51.30;102178.88;107656;1255;97864;-61
2023/09/26 08:31:14;;;;;;;34.80;11.90;;;;;;;21.75;51.51;102179.95;107596;1254;110907;-63
2023/09/26 08:33:44;;;;;;;44.10;13.30;;;;;;;22.02;50.72;102177.90;107572;1253;109406;-62
2023/09/26 08:36:17;;;;;;;40.00;11.40;;;;;;;22.24;49.81;102171.45;107599;1254;107752;-63
2023/09/26 08:38:50;;;;;;;30.10;11.20;;;;;;;22.48;50.15;102169.63;107535;1254;97877;-62
2023/09/26 08:41:19;;;;;;;;;;;;;;;22.75;49.81;102171.59;107559;1254;97729;-63
2023/09/26 08:43:48;;;;;;;30.20;11.50;;;;;;;22.98;48.30;102173.94;107687;1251;112083;-64
2023/09/26 08:46:17;;;;;;;27.90;10.60;;;;;;;23.21;46.40;102170.08;107714;1254;108364;-62
2023/09/26 08:48:47;;;;;;;31.00;11.20;;;;;;;23.48;46.67;102170.76;107579;1253;107577;-62
2023/09/26 08:51:16;;;;;;;35.70;10.50;;;;;;;23.76;45.56;102164.93;107587;1252;97913;-62
2023/09/26 08:53:44;;;;;;;31.70;10.40;;;;;;;24.04;45.41;102161.55;107582;1254;97812;-62
2023/09/26 08:56:12;;;;;;;38.00;9.70;;;;;;;24.29;43.01;102156.71;107575;1253;111359;-63
2023/09/26 08:58:42;;;;;;;25.40;10.00;;;;;;;24.58;43.42;102155.53;107574;1253;109716;-61
2023/09/26 09:01:11;;;;;;;29.90;9.60;;;;;;;24.92;41.77;102153.30;107582;1253;107471;-62
2023/09/26 09:03:39;;;;;;;19.10;9.00;;;;;;;25.26;41.05;102152.96;107582;1256;97837;-63
2023/09/26 09:06:08;;;;;;;26.90;7.90;;;;;;;25.66;40.40;102151.34;107594;1254;97728;-61
2023/09/26 09:08:37;;;;;;;37.50;9.30;;;;;;;26.07;37.76;102146.23;107656;1254;111389;-62
2023/09/26 09:11:05;;;;;;;32.80;9.60;;;;;;;26.46;37.09;102144.31;107573;1254;109263;-61
2023/09/26 09:13:42;;;;;;;39.50;8.50;;;;;;;26.97;36.47;102140.05;107606;1253;108135;-61
2023/09/26 09:16:15;;;;;;;20.10;8.20;;;;;;;27.65;35.93;102138.25;107634;1254;97840;-62
2023/09/26 09:18:52;;;;;;;24.60;8.20;;;;;;;28.40;33.54;102138.09;107581;1255;98394;-63
2023/09/26 09:21:34;;;;;;;28.80;7.50;;;;;;;29.16;35.12;102131.70;107651;1253;111090;-63
2023/09/26 09:24:06;;;;;;;31.10;7.30;;;;;;;30.02;32.58;102128.51;107633;1254;109671;-64
2023/09/26 09:26:36;;;;;;;25.60;7.30;;;;;;;30.75;32.07;102120.41;107597;1254;108620;-62
2023/09/26 09:29:21;;;;;;;36.60;8.80;;;;;;;31.47;31.88;102120.45;107586;1252;97864;-62
2023/09/26 09:31:51;;;;;;;25.60;7.20;;;;;;;32.24;30.76;102119.61;107616;1252;98030;-62
2023/09/26 09:34:23;;;;;;;23.50;7.10;;;;;;;32.85;28.74;102116.60;107518;1252;112148;-63
2023/09/26 09:36:56;;;;;;;27.00;6.60;;;;;;;33.39;28.40;102116.58;107628;1254;109784;-63
2023/09/26 09:39:24;;;;;;;21.40;6.30;;;;;;;33.95;27.25;102112.78;107613;1251;107520;-63
2023/09/26 09:42:00;;;;;;;20.70;5.30;;;;;;;34.25;23.06;102100.20;107584;1254;98023;-62
2023/09/26 09:44:30;;;;;;;13.10;4.60;;;;;;;34.49;23.72;102092.15;107545;1254;97733;-64
2023/09/26 09:47:03;;;;;;;16.90;3.90;;;;;;;34.97;24.09;102089.90;107590;1254;111841;-61
2023/09/26 09:49:32;;;;;;;16.50;4.30;;;;;;;35.48;22.02;102083.29;107587;1256;109862;-62
2023/09/26 09:52:04;;;;;;;18.70;5.30;;;;;;;35.86;21.58;102085.17;107546;1254;108806;-62
2023/09/26 09:54:33;;;;;;;;;;;;;;;36.11;21.52;102079.69;107516;1257;97711;-62
2023/09/26 09:57:09;;;;;;;23.10;4.60;;;;;;;36.39;21.39;102079.20;107576;1253;98386;-63
2023/09/26 09:59:38;;;;;;;12.40;4.20;;;;;;;36.66;20.37;102083.74;107585;1255;111769;-61
2023/09/26 10:02:09;;;;;;;15.80;4.00;;;;;;;37.10;21.05;102081.31;107616;1254;109492;-62
2023/09/26 10:04:39;;;;;;;9.60;3.40;;;;;;;37.82;20.90;102069.23;107624;1254;108108;-63
2023/09/26 10:07:09;;;;;;;9.40;3.80;;;;;;;38.35;18.41;102072.46;107546;1256;97832;-65
2023/09/26 10:09:39;;;;;;;7.40;3.20;;;;;;;38.39;17.57;102069.68;107086;1254;621272;-62
2023/09/26 10:12:09;;;;;;;16.30;4.60;;;;;;;38.50;17.39;102066.32;107572;1254;110614;-63
2023/09/26 10:14:38;;;;;;;12.00;3.60;;;;;;;38.68;17.65;102063.21;107601;1254;109728;-61
2023/09/26 10:17:06;;;;;;;14.20;3.50;;;;;;;38.88;16.24;102062.14;107592;1255;107301;-62
2023/09/26 10:19:35;;;;;;;16.20;4.00;;;;;;;39.02;16.87;102063.44;107555;1254;97824;-62
2023/09/26 10:22:32;;;;;;;16.50;3.50;;;;;;;39.48;16.79;102060.29;107549;1254;97867;-62
2023/09/26 10:25:02;;;;;;;13.50;3.20;;;;;;;39.69;15.23;102051.89;107544;1254;111872;-62
2023/09/26 10:27:30;;;;;;;10.80;3.20;;;;;;;39.52;15.00;102054.83;107595;1254;108988;-64
2023/09/26 10:30:03;;;;;;;9.50;4.40;;;;;;;39.59;14.67;102052.36;107576;1254;108682;-62
2023/09/26 10:32:38;;;;;;;11.90;3.50;;;;;;;39.58;15.60;102049.73;107586;1251;97841;-63
2023/09/26 10:35:13;;;;;;;12.60;3.80;;;;;;;39.93;14.83;102045.56;107621;1254;98497;-62
2023/09/26 10:37:49;;;;;;;15.30;3.00;;;;;;;39.98;14.84;102045.15;107560;1253;111875;-62
2023/09/26 10:40:18;;;;;;;18.90;3.20;;;;;;;40.18;15.06;102042.64;107595;1252;109010;-63
2023/09/26 10:42:48;;;;;;;7.00;2.50;;;;;;;40.49;14.23;102041.30;107569;1254;108472;-62
2023/09/26 10:45:20;;;;;;;13.20;3.60;;;;;;;40.60;14.25;102045.52;107557;1256;97924;-62
2023/09/26 10:47:48;;;;;;;11.00;3.30;;;;;;;40.93;13.93;102039.46;107620;1254;97739;-62
2023/09/26 10:50:37;;;;;;;8.10;3.30;;;;;;;40.98;13.25;102034.34;107524;1251;111953;-62
2023/09/26 10:53:05;;;;;;;9.70;3.80;;;;;;;40.95;14.15;102029.00;107560;1254;109261;-64
2023/09/26 10:55:34;;;;;;;11.70;2.80;;;;;;;41.29;13.87;102025.91;107609;1252;107100;-63
2023/09/26 10:58:04;;;;;;;9.80;3.30;;;;;;;41.53;14.00;102028.34;107576;1255;97845;-63
2023/09/26 11:00:32;;;;;;;13.80;2.40;;;;;;;41.78;13.82;102021.98;107617;1255;97828;-62
2023/09/26 11:03:00;;;;;;;10.80;3.20;;;;;;;41.87;13.29;102026.16;107574;1254;111545;-62
2023/09/26 11:05:50;;;;;;;16.70;2.90;;;;;;;41.85;13.17;102017.85;107610;1254;109606;-61
2023/09/26 11:08:38;;;;;;;12.60;2.70;;;;;;;41.94;12.92;102020.21;107565;1253;108856;-62
2023/09/26 11:11:08;;;;;;;12.30;3.20;;;;;;;41.60;12.30;102018.89;107535;1254;97752;-62
2023/09/26 11:13:36;;;;;;;18.50;3.70;;;;;;;41.10;12.58;102020.13;107602;1252;97845;-62